Pagina principală
METAR-TAF:

METAR-TAF

Aeroporturi :

McMinnville, Oregon, Statele Unite ale Americii

Latitudine: 45-11-46N, longitudine: 123-07-56W, elevație: 48 m

Observații meteo curente

Raportul a fost făcut în urmă cu 1 oră și 6 de minute, la 19:53 UTC
Vânt 3 kt din direcții variabile
Temperatură 16°C
Umiditate 55%
Presiune 1017 hPa
Vizibilitate: 16.1 km
Nori puțini la o înălțime de 12000 picior

METAR: KMMV 161953Z AUTO VRB03KT 10SM FEW120 16/07 A3004 RMK AO2 SLP171 T01560067 $

Ora: 13:59 (20:59 UTC)


TAF: lipsă

Observații și prognoze meteo pentru peste 4.000 de aeroporturi (rapoarte METAR și TAF).

Stațiile disponibile sunt reprezentate pe hartă prin puncte galbene și roșii.

Țineți indicatorul mouse-ului pe punctul dorit pentru a vedea denumirea stației.

Apoi, faceți clic pentru a vedea observațiile și prognozele meteorologice.

Pentru a schimba harta: Pentru mărire, faceți clic pe butoanele verzi cu cruce neagră; pentru micșorare, pe butonul verde cu o liniuță; pentru hărți învecinate, pe săgețile verzi.


METAR-TAF: